sensor_id;sensor_type;location;lat;lon;timestamp;P1;durP1;ratioP1;P2;durP2;ratioP2
8929;SDS011;4500;49.074;9.110;2023-05-14T00:01:00;2.90;;;2.80;;
8929;SDS011;4500;49.074;9.110;2023-05-14T00:04:02;2.50;;;2.40;;
8929;SDS011;4500;49.074;9.110;2023-05-14T00:06:29;3.53;;;3.33;;
8929;SDS011;4500;49.074;9.110;2023-05-14T00:08:57;2.40;;;2.30;;
8929;SDS011;4500;49.074;9.110;2023-05-14T00:11:25;2.90;;;2.80;;
8929;SDS011;4500;49.074;9.110;2023-05-14T00:13:53;2.90;;;2.80;;
8929;SDS011;4500;49.074;9.110;2023-05-14T00:16:21;3.00;;;2.90;;
8929;SDS011;4500;49.074;9.110;2023-05-14T00:18:48;1.37;;;1.30;;
8929;SDS011;4500;49.074;9.110;2023-05-14T00:21:16;0.70;;;0.70;;
8929;SDS011;4500;49.074;9.110;2023-05-14T00:23:43;0.70;;;0.70;;
8929;SDS011;4500;49.074;9.110;2023-05-14T00:26:11;0.70;;;0.70;;
8929;SDS011;4500;49.074;9.110;2023-05-14T00:28:38;0.70;;;0.70;;
8929;SDS011;4500;49.074;9.110;2023-05-14T00:31:05;1.13;;;1.13;;
8929;SDS011;4500;49.074;9.110;2023-05-14T00:33:33;2.30;;;2.20;;
8929;SDS011;4500;49.074;9.110;2023-05-14T00:36:00;2.50;;;2.40;;
8929;SDS011;4500;49.074;9.110;2023-05-14T00:38:28;2.77;;;2.67;;
8929;SDS011;4500;49.074;9.110;2023-05-14T00:40:56;2.70;;;2.60;;
8929;SDS011;4500;49.074;9.110;2023-05-14T00:43:23;3.53;;;3.37;;
8929;SDS011;4500;49.074;9.110;2023-05-14T00:45:52;2.07;;;1.97;;
8929;SDS011;4500;49.074;9.110;2023-05-14T00:48:20;2.07;;;1.97;;
8929;SDS011;4500;49.074;9.110;2023-05-14T00:50:48;1.03;;;1.00;;
8929;SDS011;4500;49.074;9.110;2023-05-14T00:53:17;0.83;;;0.83;;
8929;SDS011;4500;49.074;9.110;2023-05-14T00:55:45;0.80;;;0.80;;
8929;SDS011;4500;49.074;9.110;2023-05-14T00:58:13;0.70;;;0.70;;
8929;SDS011;4500;49.074;9.110;2023-05-14T01:00:41;0.70;;;0.70;;
8929;SDS011;4500;49.074;9.110;2023-05-14T01:03:08;0.67;;;0.67;;
8929;SDS011;4500;49.074;9.110;2023-05-14T01:08:30;0.73;;;0.73;;
8929;SDS011;4500;49.074;9.110;2023-05-14T01:11:14;0.70;;;0.70;;
8929;SDS011;4500;49.074;9.110;2023-05-14T01:16:39;0.80;;;0.80;;
8929;SDS011;4500;49.074;9.110;2023-05-14T01:19:09;0.83;;;0.83;;
8929;SDS011;4500;49.074;9.110;2023-05-14T01:21:53;3.03;;;2.93;;
8929;SDS011;4500;49.074;9.110;2023-05-14T01:24:20;2.40;;;2.30;;
8929;SDS011;4500;49.074;9.110;2023-05-14T01:26:48;1.43;;;1.37;;
8929;SDS011;4500;49.074;9.110;2023-05-14T01:29:20;0.73;;;0.73;;
8929;SDS011;4500;49.074;9.110;2023-05-14T01:31:49;1.33;;;1.30;;
8929;SDS011;4500;49.074;9.110;2023-05-14T01:34:18;0.87;;;0.87;;
8929;SDS011;4500;49.074;9.110;2023-05-14T01:36:47;1.07;;;1.07;;
8929;SDS011;4500;49.074;9.110;2023-05-14T01:39:17;1.13;;;1.10;;
8929;SDS011;4500;49.074;9.110;2023-05-14T01:41:45;0.70;;;0.70;;
8929;SDS011;4500;49.074;9.110;2023-05-14T01:44:13;0.80;;;0.80;;
8929;SDS011;4500;49.074;9.110;2023-05-14T01:46:41;0.60;;;0.60;;
8929;SDS011;4500;49.074;9.110;2023-05-14T01:49:08;3.10;;;2.50;;
8929;SDS011;4500;49.074;9.110;2023-05-14T01:51:36;1.30;;;1.30;;
8929;SDS011;4500;49.074;9.110;2023-05-14T01:54:03;2.30;;;2.20;;
8929;SDS011;4500;49.074;9.110;2023-05-14T01:56:30;2.70;;;2.60;;
8929;SDS011;4500;49.074;9.110;2023-05-14T01:58:58;3.30;;;3.20;;
8929;SDS011;4500;49.074;9.110;2023-05-14T02:01:26;3.70;;;3.53;;
8929;SDS011;4500;49.074;9.110;2023-05-14T02:03:53;4.07;;;3.87;;
8929;SDS011;4500;49.074;9.110;2023-05-14T02:06:21;2.37;;;2.27;;
8929;SDS011;4500;49.074;9.110;2023-05-14T02:08:48;1.23;;;1.20;;
8929;SDS011;4500;49.074;9.110;2023-05-14T02:11:16;0.90;;;0.90;;
8929;SDS011;4500;49.074;9.110;2023-05-14T02:13:44;0.90;;;0.90;;
8929;SDS011;4500;49.074;9.110;2023-05-14T02:16:12;0.70;;;0.70;;
8929;SDS011;4500;49.074;9.110;2023-05-14T02:18:39;0.80;;;0.80;;
8929;SDS011;4500;49.074;9.110;2023-05-14T02:21:07;0.70;;;0.70;;
8929;SDS011;4500;49.074;9.110;2023-05-14T02:23:34;2.70;;;2.60;;
8929;SDS011;4500;49.074;9.110;2023-05-14T02:26:08;0.70;;;0.70;;
8929;SDS011;4500;49.074;9.110;2023-05-14T02:28:36;1.63;;;1.63;;
8929;SDS011;4500;49.074;9.110;2023-05-14T02:31:03;2.40;;;2.30;;
8929;SDS011;4500;49.074;9.110;2023-05-14T02:33:31;3.33;;;3.23;;
8929;SDS011;4500;49.074;9.110;2023-05-14T02:35:59;3.10;;;3.00;;
8929;SDS011;4500;49.074;9.110;2023-05-14T02:38:26;5.10;;;4.90;;
8929;SDS011;4500;49.074;9.110;2023-05-14T02:40:53;3.77;;;3.60;;
8929;SDS011;4500;49.074;9.110;2023-05-14T02:43:21;1.90;;;1.80;;
8929;SDS011;4500;49.074;9.110;2023-05-14T02:45:49;1.47;;;1.40;;
8929;SDS011;4500;49.074;9.110;2023-05-14T02:48:16;0.80;;;0.80;;
8929;SDS011;4500;49.074;9.110;2023-05-14T02:50:44;0.90;;;0.90;;
8929;SDS011;4500;49.074;9.110;2023-05-14T02:53:12;0.83;;;0.83;;
8929;SDS011;4500;49.074;9.110;2023-05-14T02:55:40;1.20;;;1.20;;
8929;SDS011;4500;49.074;9.110;2023-05-14T02:58:07;0.77;;;0.77;;
8929;SDS011;4500;49.074;9.110;2023-05-14T03:00:35;2.00;;;1.90;;
8929;SDS011;4500;49.074;9.110;2023-05-14T03:03:03;2.57;;;2.47;;
8929;SDS011;4500;49.074;9.110;2023-05-14T03:05:31;3.53;;;3.40;;
8929;SDS011;4500;49.074;9.110;2023-05-14T03:07:59;3.47;;;3.33;;
8929;SDS011;4500;49.074;9.110;2023-05-14T03:10:26;3.93;;;3.73;;
8929;SDS011;4500;49.074;9.110;2023-05-14T03:12:54;4.10;;;3.90;;
8929;SDS011;4500;49.074;9.110;2023-05-14T03:15:21;2.80;;;2.70;;
8929;SDS011;4500;49.074;9.110;2023-05-14T03:17:49;1.33;;;1.27;;
8929;SDS011;4500;49.074;9.110;2023-05-14T03:20:16;1.00;;;1.00;;
8929;SDS011;4500;49.074;9.110;2023-05-14T03:22:44;0.80;;;0.80;;
8929;SDS011;4500;49.074;9.110;2023-05-14T03:25:11;5.80;;;3.80;;
8929;SDS011;4500;49.074;9.110;2023-05-14T03:27:39;0.90;;;0.90;;
8929;SDS011;4500;49.074;9.110;2023-05-14T03:30:06;1.20;;;1.20;;
8929;SDS011;4500;49.074;9.110;2023-05-14T03:32:34;2.67;;;2.57;;
8929;SDS011;4500;49.074;9.110;2023-05-14T03:35:03;4.07;;;3.87;;
8929;SDS011;4500;49.074;9.110;2023-05-14T03:37:31;3.10;;;3.00;;
8929;SDS011;4500;49.074;9.110;2023-05-14T03:39:58;4.80;;;4.40;;
8929;SDS011;4500;49.074;9.110;2023-05-14T03:42:26;3.90;;;3.70;;
8929;SDS011;4500;49.074;9.110;2023-05-14T03:44:53;3.73;;;3.53;;
8929;SDS011;4500;49.074;9.110;2023-05-14T03:47:21;3.33;;;3.20;;
8929;SDS011;4500;49.074;9.110;2023-05-14T03:49:49;1.20;;;1.17;;
8929;SDS011;4500;49.074;9.110;2023-05-14T03:52:16;1.10;;;1.10;;
8929;SDS011;4500;49.074;9.110;2023-05-14T03:54:44;0.90;;;0.90;;
8929;SDS011;4500;49.074;9.110;2023-05-14T03:57:12;1.23;;;1.23;;
8929;SDS011;4500;49.074;9.110;2023-05-14T03:59:39;1.03;;;1.03;;
8929;SDS011;4500;49.074;9.110;2023-05-14T04:02:06;1.03;;;1.03;;
8929;SDS011;4500;49.074;9.110;2023-05-14T04:04:34;3.20;;;3.10;;
8929;SDS011;4500;49.074;9.110;2023-05-14T04:07:01;3.30;;;3.20;;
8929;SDS011;4500;49.074;9.110;2023-05-14T04:09:29;3.40;;;3.30;;
8929;SDS011;4500;49.074;9.110;2023-05-14T04:11:56;3.20;;;3.10;;
8929;SDS011;4500;49.074;9.110;2023-05-14T04:14:23;3.80;;;3.60;;
8929;SDS011;4500;49.074;9.110;2023-05-14T04:16:51;3.00;;;2.90;;
8929;SDS011;4500;49.074;9.110;2023-05-14T04:19:18;1.30;;;1.27;;
8929;SDS011;4500;49.074;9.110;2023-05-14T04:21:46;0.73;;;0.73;;
8929;SDS011;4500;49.074;9.110;2023-05-14T04:24:13;0.87;;;0.87;;
8929;SDS011;4500;49.074;9.110;2023-05-14T04:26:41;1.00;;;1.00;;
8929;SDS011;4500;49.074;9.110;2023-05-14T04:29:09;0.97;;;0.97;;
8929;SDS011;4500;49.074;9.110;2023-05-14T04:31:36;2.07;;;1.97;;
8929;SDS011;4500;49.074;9.110;2023-05-14T04:34:03;2.60;;;2.50;;
8929;SDS011;4500;49.074;9.110;2023-05-14T04:36:31;3.33;;;3.23;;
8929;SDS011;4500;49.074;9.110;2023-05-14T04:38:59;3.00;;;2.90;;
8929;SDS011;4500;49.074;9.110;2023-05-14T04:41:26;4.00;;;3.80;;
8929;SDS011;4500;49.074;9.110;2023-05-14T04:43:57;3.87;;;3.67;;
8929;SDS011;4500;49.074;9.110;2023-05-14T04:46:25;3.00;;;2.90;;
8929;SDS011;4500;49.074;9.110;2023-05-14T04:48:53;2.80;;;2.70;;
8929;SDS011;4500;49.074;9.110;2023-05-14T04:51:20;2.50;;;2.40;;
8929;SDS011;4500;49.074;9.110;2023-05-14T04:53:47;1.47;;;1.40;;
8929;SDS011;4500;49.074;9.110;2023-05-14T04:56:15;0.73;;;0.73;;
8929;SDS011;4500;49.074;9.110;2023-05-14T04:58:45;1.10;;;1.10;;
8929;SDS011;4500;49.074;9.110;2023-05-14T05:01:13;0.80;;;0.80;;
8929;SDS011;4500;49.074;9.110;2023-05-14T05:03:41;1.10;;;1.10;;
8929;SDS011;4500;49.074;9.110;2023-05-14T05:06:08;0.80;;;0.80;;
8929;SDS011;4500;49.074;9.110;2023-05-14T05:08:36;1.70;;;1.70;;
8929;SDS011;4500;49.074;9.110;2023-05-14T05:11:04;2.70;;;2.60;;
8929;SDS011;4500;49.074;9.110;2023-05-14T05:13:31;3.20;;;3.10;;
8929;SDS011;4500;49.074;9.110;2023-05-14T05:15:59;2.90;;;2.80;;
8929;SDS011;4500;49.074;9.110;2023-05-14T05:18:27;4.23;;;4.03;;
8929;SDS011;4500;49.074;9.110;2023-05-14T05:20:54;3.83;;;3.63;;
8929;SDS011;4500;49.074;9.110;2023-05-14T05:23:21;3.20;;;3.00;;
8929;SDS011;4500;49.074;9.110;2023-05-14T05:25:49;1.30;;;1.27;;
8929;SDS011;4500;49.074;9.110;2023-05-14T05:28:17;1.23;;;1.20;;
8929;SDS011;4500;49.074;9.110;2023-05-14T05:30:44;0.97;;;0.97;;
8929;SDS011;4500;49.074;9.110;2023-05-14T05:33:12;0.80;;;0.80;;
8929;SDS011;4500;49.074;9.110;2023-05-14T05:35:40;1.03;;;1.03;;
8929;SDS011;4500;49.074;9.110;2023-05-14T05:38:10;1.07;;;1.07;;
8929;SDS011;4500;49.074;9.110;2023-05-14T05:40:38;1.10;;;1.10;;
8929;SDS011;4500;49.074;9.110;2023-05-14T05:43:05;1.97;;;1.87;;
8929;SDS011;4500;49.074;9.110;2023-05-14T05:45:32;2.97;;;2.87;;
8929;SDS011;4500;49.074;9.110;2023-05-14T05:48:00;3.00;;;2.90;;
8929;SDS011;4500;49.074;9.110;2023-05-14T05:50:27;3.07;;;2.97;;
8929;SDS011;4500;49.074;9.110;2023-05-14T05:52:56;3.80;;;3.60;;
8929;SDS011;4500;49.074;9.110;2023-05-14T05:55:24;3.13;;;3.03;;
8929;SDS011;4500;49.074;9.110;2023-05-14T05:57:52;2.03;;;1.93;;
8929;SDS011;4500;49.074;9.110;2023-05-14T06:00:20;1.73;;;1.67;;
8929;SDS011;4500;49.074;9.110;2023-05-14T06:02:48;1.33;;;1.30;;
8929;SDS011;4500;49.074;9.110;2023-05-14T06:05:15;0.80;;;0.80;;
8929;SDS011;4500;49.074;9.110;2023-05-14T06:07:44;1.00;;;1.00;;
8929;SDS011;4500;49.074;9.110;2023-05-14T06:10:12;0.80;;;0.80;;
8929;SDS011;4500;49.074;9.110;2023-05-14T06:12:39;0.80;;;0.80;;
8929;SDS011;4500;49.074;9.110;2023-05-14T06:15:07;1.03;;;1.03;;
8929;SDS011;4500;49.074;9.110;2023-05-14T06:17:35;1.97;;;1.87;;
8929;SDS011;4500;49.074;9.110;2023-05-14T06:20:02;3.20;;;3.10;;
8929;SDS011;4500;49.074;9.110;2023-05-14T06:22:33;2.83;;;2.73;;
8929;SDS011;4500;49.074;9.110;2023-05-14T06:25:01;2.93;;;2.83;;
8929;SDS011;4500;49.074;9.110;2023-05-14T06:27:28;3.23;;;3.13;;
8929;SDS011;4500;49.074;9.110;2023-05-14T06:29:56;3.73;;;3.53;;
8929;SDS011;4500;49.074;9.110;2023-05-14T06:32:23;3.63;;;3.47;;
8929;SDS011;4500;49.074;9.110;2023-05-14T06:34:51;2.90;;;2.80;;
8929;SDS011;4500;49.074;9.110;2023-05-14T06:37:19;1.47;;;1.40;;
8929;SDS011;4500;49.074;9.110;2023-05-14T06:39:46;1.03;;;1.03;;
8929;SDS011;4500;49.074;9.110;2023-05-14T06:42:16;0.70;;;0.70;;
8929;SDS011;4500;49.074;9.110;2023-05-14T06:44:44;2.40;;;2.30;;
8929;SDS011;4500;49.074;9.110;2023-05-14T06:47:12;0.80;;;0.80;;
8929;SDS011;4500;49.074;9.110;2023-05-14T06:49:40;0.80;;;0.80;;
8929;SDS011;4500;49.074;9.110;2023-05-14T06:52:07;0.63;;;0.63;;
8929;SDS011;4500;49.074;9.110;2023-05-14T06:54:35;1.83;;;1.73;;
8929;SDS011;4500;49.074;9.110;2023-05-14T06:57:03;2.80;;;2.70;;
8929;SDS011;4500;49.074;9.110;2023-05-14T06:59:31;3.00;;;2.90;;
8929;SDS011;4500;49.074;9.110;2023-05-14T07:01:59;3.00;;;2.90;;
8929;SDS011;4500;49.074;9.110;2023-05-14T07:04:27;4.20;;;4.00;;
8929;SDS011;4500;49.074;9.110;2023-05-14T07:06:54;3.33;;;3.23;;
8929;SDS011;4500;49.074;9.110;2023-05-14T07:09:22;1.90;;;1.80;;
8929;SDS011;4500;49.074;9.110;2023-05-14T07:11:50;1.37;;;1.37;;
8929;SDS011;4500;49.074;9.110;2023-05-14T07:14:17;1.17;;;1.17;;
8929;SDS011;4500;49.074;9.110;2023-05-14T07:16:44;0.73;;;0.73;;
8929;SDS011;4500;49.074;9.110;2023-05-14T07:19:12;0.60;;;0.60;;
8929;SDS011;4500;49.074;9.110;2023-05-14T07:21:40;0.80;;;0.80;;
8929;SDS011;4500;49.074;9.110;2023-05-14T07:24:08;0.90;;;0.90;;
8929;SDS011;4500;49.074;9.110;2023-05-14T07:26:35;1.80;;;1.70;;
8929;SDS011;4500;49.074;9.110;2023-05-14T07:29:03;2.80;;;2.70;;
8929;SDS011;4500;49.074;9.110;2023-05-14T07:31:30;2.50;;;2.40;;
8929;SDS011;4500;49.074;9.110;2023-05-14T07:33:58;2.80;;;2.70;;
8929;SDS011;4500;49.074;9.110;2023-05-14T07:36:25;2.90;;;2.80;;
8929;SDS011;4500;49.074;9.110;2023-05-14T07:38:53;2.03;;;1.93;;
8929;SDS011;4500;49.074;9.110;2023-05-14T07:41:20;2.50;;;2.40;;
8929;SDS011;4500;49.074;9.110;2023-05-14T07:43:48;1.33;;;1.30;;
8929;SDS011;4500;49.074;9.110;2023-05-14T07:46:15;0.90;;;0.90;;
8929;SDS011;4500;49.074;9.110;2023-05-14T07:48:43;0.60;;;0.60;;
8929;SDS011;4500;49.074;9.110;2023-05-14T07:51:10;0.60;;;0.60;;
8929;SDS011;4500;49.074;9.110;2023-05-14T07:53:38;0.60;;;0.60;;
8929;SDS011;4500;49.074;9.110;2023-05-14T07:56:06;1.00;;;1.00;;
8929;SDS011;4500;49.074;9.110;2023-05-14T07:58:33;2.03;;;1.93;;
8929;SDS011;4500;49.074;9.110;2023-05-14T08:01:01;2.30;;;2.20;;
8929;SDS011;4500;49.074;9.110;2023-05-14T08:03:32;2.93;;;2.77;;
8929;SDS011;4500;49.074;9.110;2023-05-14T08:06:00;2.43;;;2.33;;
8929;SDS011;4500;49.074;9.110;2023-05-14T08:08:27;2.90;;;2.80;;
8929;SDS011;4500;49.074;9.110;2023-05-14T08:10:55;2.60;;;2.50;;
8929;SDS011;4500;49.074;9.110;2023-05-14T08:13:22;1.80;;;1.70;;
8929;SDS011;4500;49.074;9.110;2023-05-14T08:15:50;1.43;;;1.43;;
8929;SDS011;4500;49.074;9.110;2023-05-14T08:18:17;1.00;;;1.00;;
8929;SDS011;4500;49.074;9.110;2023-05-14T08:20:45;0.90;;;0.90;;
8929;SDS011;4500;49.074;9.110;2023-05-14T08:23:13;0.60;;;0.60;;
8929;SDS011;4500;49.074;9.110;2023-05-14T08:25:41;0.70;;;0.70;;
8929;SDS011;4500;49.074;9.110;2023-05-14T08:28:08;0.60;;;0.60;;
8929;SDS011;4500;49.074;9.110;2023-05-14T08:30:36;2.80;;;2.50;;
8929;SDS011;4500;49.074;9.110;2023-05-14T08:33:03;1.93;;;1.83;;
8929;SDS011;4500;49.074;9.110;2023-05-14T08:35:31;1.53;;;1.53;;
8929;SDS011;4500;49.074;9.110;2023-05-14T08:37:58;1.97;;;1.87;;
8929;SDS011;4500;49.074;9.110;2023-05-14T08:40:26;2.53;;;2.43;;
8929;SDS011;4500;49.074;9.110;2023-05-14T08:42:53;1.97;;;1.87;;
8929;SDS011;4500;49.074;9.110;2023-05-14T08:45:27;2.50;;;2.40;;
8929;SDS011;4500;49.074;9.110;2023-05-14T08:47:59;1.93;;;1.83;;
8929;SDS011;4500;49.074;9.110;2023-05-14T08:50:27;2.13;;;2.03;;
8929;SDS011;4500;49.074;9.110;2023-05-14T08:52:57;2.03;;;1.93;;
8929;SDS011;4500;49.074;9.110;2023-05-14T08:55:25;1.90;;;1.80;;
8929;SDS011;4500;49.074;9.110;2023-05-14T08:57:52;1.87;;;1.77;;
8929;SDS011;4500;49.074;9.110;2023-05-14T09:00:20;0.90;;;0.90;;
8929;SDS011;4500;49.074;9.110;2023-05-14T09:02:48;1.13;;;1.13;;
8929;SDS011;4500;49.074;9.110;2023-05-14T09:05:17;0.60;;;0.60;;
8929;SDS011;4500;49.074;9.110;2023-05-14T09:07:45;0.60;;;0.60;;
8929;SDS011;4500;49.074;9.110;2023-05-14T09:10:13;0.60;;;0.60;;
8929;SDS011;4500;49.074;9.110;2023-05-14T09:12:42;0.50;;;0.50;;
8929;SDS011;4500;49.074;9.110;2023-05-14T09:15:09;0.60;;;0.60;;
8929;SDS011;4500;49.074;9.110;2023-05-14T09:17:37;0.70;;;0.70;;
8929;SDS011;4500;49.074;9.110;2023-05-14T09:20:04;1.43;;;1.43;;
8929;SDS011;4500;49.074;9.110;2023-05-14T09:22:33;1.60;;;1.57;;
8929;SDS011;4500;49.074;9.110;2023-05-14T09:25:02;1.87;;;1.77;;
8929;SDS011;4500;49.074;9.110;2023-05-14T09:27:37;0.57;;;0.57;;
8929;SDS011;4500;49.074;9.110;2023-05-14T09:30:06;1.13;;;1.13;;
8929;SDS011;4500;49.074;9.110;2023-05-14T09:32:41;0.60;;;0.60;;
8929;SDS011;4500;49.074;9.110;2023-05-14T09:35:10;0.80;;;0.80;;
8929;SDS011;4500;49.074;9.110;2023-05-14T09:37:40;0.50;;;0.50;;
8929;SDS011;4500;49.074;9.110;2023-05-14T09:40:09;0.60;;;0.60;;
8929;SDS011;4500;49.074;9.110;2023-05-14T09:42:37;0.50;;;0.50;;
8929;SDS011;4500;49.074;9.110;2023-05-14T09:45:06;0.93;;;0.93;;
8929;SDS011;4500;49.074;9.110;2023-05-14T09:47:35;1.07;;;1.07;;
8929;SDS011;4500;49.074;9.110;2023-05-14T09:50:03;1.37;;;1.37;;
8929;SDS011;4500;49.074;9.110;2023-05-14T09:52:32;1.53;;;1.53;;
8929;SDS011;4500;49.074;9.110;2023-05-14T09:55:00;1.47;;;1.47;;
8929;SDS011;4500;49.074;9.110;2023-05-14T09:57:27;1.73;;;1.63;;
8929;SDS011;4500;49.074;9.110;2023-05-14T09:59:55;1.57;;;1.57;;
8929;SDS011;4500;49.074;9.110;2023-05-14T10:02:26;3.10;;;2.93;;
8929;SDS011;4500;49.074;9.110;2023-05-14T10:05:05;1.43;;;1.43;;
8929;SDS011;4500;49.074;9.110;2023-05-14T10:07:40;1.33;;;1.33;;
8929;SDS011;4500;49.074;9.110;2023-05-14T10:10:12;0.50;;;0.50;;
8929;SDS011;4500;49.074;9.110;2023-05-14T10:12:43;0.50;;;0.50;;
8929;SDS011;4500;49.074;9.110;2023-05-14T10:15:28;0.50;;;0.50;;
8929;SDS011;4500;49.074;9.110;2023-05-14T10:18:02;1.37;;;1.37;;
8929;SDS011;4500;49.074;9.110;2023-05-14T10:20:32;3.07;;;2.87;;
8929;SDS011;4500;49.074;9.110;2023-05-14T10:23:01;1.43;;;1.43;;
8929;SDS011;4500;49.074;9.110;2023-05-14T10:25:29;1.40;;;1.40;;
8929;SDS011;4500;49.074;9.110;2023-05-14T10:27:57;1.87;;;1.77;;
8929;SDS011;4500;49.074;9.110;2023-05-14T10:30:25;1.33;;;1.33;;
8929;SDS011;4500;49.074;9.110;2023-05-14T10:33:14;1.17;;;1.17;;
8929;SDS011;4500;49.074;9.110;2023-05-14T10:36:25;0.50;;;0.50;;
8929;SDS011;4500;49.074;9.110;2023-05-14T10:38:34;1.10;;;1.10;;
8929;SDS011;4500;49.074;9.110;2023-05-14T10:41:09;1.53;;;1.53;;
8929;SDS011;4500;49.074;9.110;2023-05-14T10:43:38;0.50;;;0.50;;
8929;SDS011;4500;49.074;9.110;2023-05-14T10:46:07;0.73;;;0.73;;
8929;SDS011;4500;49.074;9.110;2023-05-14T10:48:36;0.83;;;0.83;;
8929;SDS011;4500;49.074;9.110;2023-05-14T10:51:06;1.53;;;1.47;;
8929;SDS011;4500;49.074;9.110;2023-05-14T10:53:38;0.90;;;0.90;;
8929;SDS011;4500;49.074;9.110;2023-05-14T10:56:10;0.60;;;0.60;;
8929;SDS011;4500;49.074;9.110;2023-05-14T10:58:43;0.60;;;0.60;;
8929;SDS011;4500;49.074;9.110;2023-05-14T11:01:12;0.50;;;0.50;;
8929;SDS011;4500;49.074;9.110;2023-05-14T11:03:41;0.60;;;0.60;;
8929;SDS011;4500;49.074;9.110;2023-05-14T11:06:13;0.53;;;0.53;;
8929;SDS011;4500;49.074;9.110;2023-05-14T11:08:42;0.93;;;0.90;;
8929;SDS011;4500;49.074;9.110;2023-05-14T11:11:10;0.70;;;0.70;;
8929;SDS011;4500;49.074;9.110;2023-05-14T11:13:37;0.60;;;0.60;;
8929;SDS011;4500;49.074;9.110;2023-05-14T11:16:05;1.57;;;1.53;;
8929;SDS011;4500;49.074;9.110;2023-05-14T11:18:35;1.07;;;1.07;;
8929;SDS011;4500;49.074;9.110;2023-05-14T11:21:04;1.47;;;1.47;;
8929;SDS011;4500;49.074;9.110;2023-05-14T11:23:31;1.63;;;1.60;;
8929;SDS011;4500;49.074;9.110;2023-05-14T11:25:59;1.53;;;1.53;;
8929;SDS011;4500;49.074;9.110;2023-05-14T11:28:27;1.97;;;1.87;;
8929;SDS011;4500;49.074;9.110;2023-05-14T11:30:55;1.60;;;1.60;;
8929;SDS011;4500;49.074;9.110;2023-05-14T11:33:22;0.97;;;0.97;;
8929;SDS011;4500;49.074;9.110;2023-05-14T11:35:50;1.10;;;1.10;;
8929;SDS011;4500;49.074;9.110;2023-05-14T11:38:18;0.67;;;0.67;;
8929;SDS011;4500;49.074;9.110;2023-05-14T11:43:21;1.20;;;1.20;;
8929;SDS011;4500;49.074;9.110;2023-05-14T11:45:54;2.13;;;2.03;;
8929;SDS011;4500;49.074;9.110;2023-05-14T11:48:22;1.27;;;1.27;;
8929;SDS011;4500;49.074;9.110;2023-05-14T11:50:50;1.00;;;1.00;;
8929;SDS011;4500;49.074;9.110;2023-05-14T11:53:19;0.87;;;0.87;;
8929;SDS011;4500;49.074;9.110;2023-05-14T11:55:53;3.90;;;3.47;;
8929;SDS011;4500;49.074;9.110;2023-05-14T11:58:23;1.20;;;1.20;;
8929;SDS011;4500;49.074;9.110;2023-05-14T12:00:53;1.40;;;1.40;;
8929;SDS011;4500;49.074;9.110;2023-05-14T12:03:22;1.00;;;1.00;;
8929;SDS011;4500;49.074;9.110;2023-05-14T12:05:56;1.33;;;1.33;;
8929;SDS011;4500;49.074;9.110;2023-05-14T12:08:28;1.47;;;1.47;;
8929;SDS011;4500;49.074;9.110;2023-05-14T12:10:57;1.83;;;1.77;;
8929;SDS011;4500;49.074;9.110;2023-05-14T12:13:30;1.63;;;1.63;;
8929;SDS011;4500;49.074;9.110;2023-05-14T12:15:59;1.53;;;1.53;;
8929;SDS011;4500;49.074;9.110;2023-05-14T12:18:31;1.47;;;1.47;;
8929;SDS011;4500;49.074;9.110;2023-05-14T12:21:03;1.57;;;1.53;;
8929;SDS011;4500;49.074;9.110;2023-05-14T12:23:33;1.43;;;1.43;;
8929;SDS011;4500;49.074;9.110;2023-05-14T12:26:01;1.63;;;1.63;;
8929;SDS011;4500;49.074;9.110;2023-05-14T12:28:33;1.80;;;1.70;;
8929;SDS011;4500;49.074;9.110;2023-05-14T12:31:04;1.33;;;1.33;;
8929;SDS011;4500;49.074;9.110;2023-05-14T12:33:32;1.70;;;1.63;;
8929;SDS011;4500;49.074;9.110;2023-05-14T12:35:59;1.70;;;1.70;;
8929;SDS011;4500;49.074;9.110;2023-05-14T12:38:46;0.60;;;0.60;;
8929;SDS011;4500;49.074;9.110;2023-05-14T12:41:13;0.70;;;0.70;;
8929;SDS011;4500;49.074;9.110;2023-05-14T12:43:42;0.50;;;0.50;;
8929;SDS011;4500;49.074;9.110;2023-05-14T12:46:10;0.60;;;0.60;;
8929;SDS011;4500;49.074;9.110;2023-05-14T12:48:37;0.50;;;0.50;;
8929;SDS011;4500;49.074;9.110;2023-05-14T12:51:05;1.40;;;1.40;;
8929;SDS011;4500;49.074;9.110;2023-05-14T12:53:33;1.20;;;1.20;;
8929;SDS011;4500;49.074;9.110;2023-05-14T12:56:01;1.37;;;1.37;;
8929;SDS011;4500;49.074;9.110;2023-05-14T12:58:28;1.37;;;1.37;;
8929;SDS011;4500;49.074;9.110;2023-05-14T13:00:56;1.97;;;1.87;;
8929;SDS011;4500;49.074;9.110;2023-05-14T13:03:23;1.03;;;1.03;;
8929;SDS011;4500;49.074;9.110;2023-05-14T13:05:51;1.30;;;1.30;;
8929;SDS011;4500;49.074;9.110;2023-05-14T13:08:22;0.87;;;0.87;;
8929;SDS011;4500;49.074;9.110;2023-05-14T13:10:53;1.13;;;1.13;;
8929;SDS011;4500;49.074;9.110;2023-05-14T13:13:21;1.67;;;1.57;;
8929;SDS011;4500;49.074;9.110;2023-05-14T13:15:49;0.60;;;0.60;;
8929;SDS011;4500;49.074;9.110;2023-05-14T13:18:16;0.57;;;0.57;;
8929;SDS011;4500;49.074;9.110;2023-05-14T13:20:45;0.53;;;0.53;;
8929;SDS011;4500;49.074;9.110;2023-05-14T13:23:13;0.70;;;0.70;;
8929;SDS011;4500;49.074;9.110;2023-05-14T13:25:41;0.50;;;0.50;;
8929;SDS011;4500;49.074;9.110;2023-05-14T13:28:09;0.83;;;0.83;;
8929;SDS011;4500;49.074;9.110;2023-05-14T13:30:37;0.60;;;0.60;;
8929;SDS011;4500;49.074;9.110;2023-05-14T13:33:04;1.50;;;1.50;;
8929;SDS011;4500;49.074;9.110;2023-05-14T13:35:32;1.27;;;1.27;;
8929;SDS011;4500;49.074;9.110;2023-05-14T13:38:00;1.53;;;1.53;;
8929;SDS011;4500;49.074;9.110;2023-05-14T13:40:28;1.47;;;1.47;;
8929;SDS011;4500;49.074;9.110;2023-05-14T13:42:56;1.37;;;1.37;;
8929;SDS011;4500;49.074;9.110;2023-05-14T13:45:23;1.30;;;1.30;;
8929;SDS011;4500;49.074;9.110;2023-05-14T13:47:51;1.53;;;1.47;;
8929;SDS011;4500;49.074;9.110;2023-05-14T13:50:19;0.67;;;0.67;;
8929;SDS011;4500;49.074;9.110;2023-05-14T13:52:48;0.60;;;0.60;;
8929;SDS011;4500;49.074;9.110;2023-05-14T13:55:15;0.60;;;0.60;;
8929;SDS011;4500;49.074;9.110;2023-05-14T13:57:43;0.60;;;0.60;;
8929;SDS011;4500;49.074;9.110;2023-05-14T14:00:11;0.57;;;0.57;;
8929;SDS011;4500;49.074;9.110;2023-05-14T14:02:40;0.53;;;0.53;;
8929;SDS011;4500;49.074;9.110;2023-05-14T14:05:08;0.50;;;0.50;;
8929;SDS011;4500;49.074;9.110;2023-05-14T14:07:35;1.03;;;1.03;;
8929;SDS011;4500;49.074;9.110;2023-05-14T14:10:05;1.00;;;1.00;;
8929;SDS011;4500;49.074;9.110;2023-05-14T14:12:33;1.10;;;1.10;;
8929;SDS011;4500;49.074;9.110;2023-05-14T14:15:00;1.13;;;1.13;;
8929;SDS011;4500;49.074;9.110;2023-05-14T14:17:29;3.77;;;3.43;;
8929;SDS011;4500;49.074;9.110;2023-05-14T14:19:57;1.57;;;1.57;;
8929;SDS011;4500;49.074;9.110;2023-05-14T14:22:24;1.30;;;1.30;;
8929;SDS011;4500;49.074;9.110;2023-05-14T14:24:54;5.00;;;3.63;;
8929;SDS011;4500;49.074;9.110;2023-05-14T14:27:21;1.30;;;1.30;;
8929;SDS011;4500;49.074;9.110;2023-05-14T14:29:49;0.63;;;0.63;;
8929;SDS011;4500;49.074;9.110;2023-05-14T14:32:16;0.57;;;0.57;;
8929;SDS011;4500;49.074;9.110;2023-05-14T14:34:44;0.50;;;0.50;;
8929;SDS011;4500;49.074;9.110;2023-05-14T14:37:12;0.60;;;0.60;;
8929;SDS011;4500;49.074;9.110;2023-05-14T14:39:39;0.50;;;0.50;;
8929;SDS011;4500;49.074;9.110;2023-05-14T14:42:07;0.53;;;0.53;;
8929;SDS011;4500;49.074;9.110;2023-05-14T14:44:34;1.00;;;1.00;;
8929;SDS011;4500;49.074;9.110;2023-05-14T14:47:02;1.10;;;1.10;;
8929;SDS011;4500;49.074;9.110;2023-05-14T14:49:29;1.27;;;1.27;;
8929;SDS011;4500;49.074;9.110;2023-05-14T14:51:58;1.37;;;1.37;;
8929;SDS011;4500;49.074;9.110;2023-05-14T14:54:25;1.17;;;1.17;;
8929;SDS011;4500;49.074;9.110;2023-05-14T14:56:53;1.17;;;1.17;;
8929;SDS011;4500;49.074;9.110;2023-05-14T14:59:20;0.93;;;0.93;;
8929;SDS011;4500;49.074;9.110;2023-05-14T15:01:48;0.60;;;0.60;;
8929;SDS011;4500;49.074;9.110;2023-05-14T15:04:16;0.50;;;0.50;;
8929;SDS011;4500;49.074;9.110;2023-05-14T15:06:44;0.50;;;0.50;;
8929;SDS011;4500;49.074;9.110;2023-05-14T15:09:11;0.60;;;0.60;;
8929;SDS011;4500;49.074;9.110;2023-05-14T15:11:40;0.60;;;0.60;;
8929;SDS011;4500;49.074;9.110;2023-05-14T15:14:11;0.70;;;0.70;;
8929;SDS011;4500;49.074;9.110;2023-05-14T15:16:39;0.50;;;0.50;;
8929;SDS011;4500;49.074;9.110;2023-05-14T15:19:07;0.50;;;0.50;;
8929;SDS011;4500;49.074;9.110;2023-05-14T15:21:35;0.80;;;0.80;;
8929;SDS011;4500;49.074;9.110;2023-05-14T15:24:03;1.17;;;1.17;;
8929;SDS011;4500;49.074;9.110;2023-05-14T15:26:35;0.70;;;0.70;;
8929;SDS011;4500;49.074;9.110;2023-05-14T15:29:03;1.23;;;1.23;;
8929;SDS011;4500;49.074;9.110;2023-05-14T15:31:31;1.13;;;1.13;;